createdAt,value
2022-11-09T00:00:06.124Z,100379.47
2022-11-09T00:02:32.623Z,100382.81
2022-11-09T00:05:02.223Z,100388.19
2022-11-09T00:07:30.769Z,100388.84
2022-11-09T00:09:57.241Z,100359.31
2022-11-09T00:12:23.715Z,100377.88
2022-11-09T00:14:50.234Z,100382.44
2022-11-09T00:17:16.650Z,100370.56
2022-11-09T00:19:43.043Z,100367.31
2022-11-09T00:22:09.428Z,100366.06
2022-11-09T00:24:35.778Z,100371.53
2022-11-09T00:27:02.154Z,100369.69
2022-11-09T00:29:29.616Z,100370.72
2022-11-09T00:31:55.999Z,100356.59
2022-11-09T00:34:22.458Z,100344.81
2022-11-09T00:36:48.841Z,100344.53
2022-11-09T00:39:15.204Z,100353.53
2022-11-09T00:41:41.663Z,100355.75
2022-11-09T00:44:08.007Z,100358.00
2022-11-09T00:46:34.539Z,100347.63
2022-11-09T00:49:01.301Z,100346.78
2022-11-09T00:51:27.693Z,100345.50
2022-11-09T00:53:56.246Z,100346.59
2022-11-09T00:56:23.079Z,100339.28
2022-11-09T00:58:53.483Z,100343.50
2022-11-09T01:01:19.945Z,100329.34
2022-11-09T01:03:46.745Z,100327.13
2022-11-09T01:06:18.650Z,100337.75
2022-11-09T01:08:45.822Z,100335.72
2022-11-09T01:11:12.947Z,100322.38
2022-11-09T01:13:39.954Z,100346.75
2022-11-09T01:16:10.167Z,100335.16
2022-11-09T01:18:36.914Z,100336.94
2022-11-09T01:21:05.275Z,100345.31
2022-11-09T01:23:32.245Z,100336.81
2022-11-09T01:26:04.231Z,100332.63
2022-11-09T01:28:30.822Z,100327.56
2022-11-09T01:31:05.624Z,100315.06
2022-11-09T01:33:32.410Z,100327.88
2022-11-09T01:36:07.132Z,100319.31
2022-11-09T01:38:33.564Z,100313.16
2022-11-09T01:40:59.914Z,100323.72
2022-11-09T01:43:26.306Z,100337.34
2022-11-09T01:46:14.848Z,100334.06
2022-11-09T01:48:55.889Z,100340.34
2022-11-09T01:51:36.274Z,100338.63
2022-11-09T01:54:09.510Z,100335.66
2022-11-09T01:56:36.622Z,100327.09
2022-11-09T01:59:08.129Z,100313.81
2022-11-09T02:01:35.828Z,100313.16
2022-11-09T02:04:09.576Z,100322.91
2022-11-09T02:06:36.411Z,100326.44
2022-11-09T02:09:26.730Z,100337.47
2022-11-09T02:11:53.067Z,100332.59
2022-11-09T02:14:22.632Z,100328.09
2022-11-09T02:16:49.872Z,100325.97
2022-11-09T02:19:16.331Z,100318.06
2022-11-09T02:21:43.022Z,100321.88
2022-11-09T02:24:10.582Z,100324.59
2022-11-09T02:26:44.590Z,100322.53
2022-11-09T02:29:14.494Z,100314.47
2022-11-09T02:31:46.493Z,100309.66
2022-11-09T02:34:17.529Z,100315.97
2022-11-09T02:36:44.444Z,100321.34
2022-11-09T02:39:11.701Z,100313.00
2022-11-09T02:41:50.371Z,100319.16
2022-11-09T02:44:18.566Z,100317.09
2022-11-09T02:46:45.077Z,100320.91
2022-11-09T02:49:11.524Z,100313.19
2022-11-09T02:51:37.927Z,100323.88
2022-11-09T02:54:04.444Z,100329.25
2022-11-09T02:56:30.893Z,100332.41
2022-11-09T02:58:57.446Z,100328.47
2022-11-09T03:01:24.024Z,100322.38
2022-11-09T03:03:50.427Z,100308.94
2022-11-09T03:06:17.006Z,100324.59
2022-11-09T03:08:43.519Z,100306.91
2022-11-09T03:11:09.968Z,100327.47
2022-11-09T03:13:36.468Z,100323.50
2022-11-09T03:16:06.801Z,100328.75
2022-11-09T03:18:33.246Z,100309.66
2022-11-09T03:21:06.297Z,100323.66
2022-11-09T03:23:32.998Z,100320.59
2022-11-09T03:25:59.646Z,100320.78
2022-11-09T03:28:26.065Z,100314.16
2022-11-09T03:30:52.624Z,100306.31
2022-11-09T03:33:19.351Z,100315.28
2022-11-09T03:35:46.078Z,100322.34
2022-11-09T03:38:13.467Z,100317.50
2022-11-09T03:40:40.346Z,100323.34
2022-11-09T03:43:06.755Z,100326.88
2022-11-09T03:45:33.173Z,100315.22
2022-11-09T03:48:02.574Z,100319.31
2022-11-09T03:50:31.712Z,100322.88
2022-11-09T03:52:58.933Z,100313.09
2022-11-09T03:55:25.849Z,100322.00
2022-11-09T03:57:52.681Z,100321.16
2022-11-09T04:00:21.864Z,100329.69
2022-11-09T04:02:48.394Z,100329.88
2022-11-09T04:05:15.336Z,100334.06
2022-11-09T04:07:47.423Z,100330.06
2022-11-09T04:10:13.794Z,100317.34
2022-11-09T04:12:40.156Z,100318.00
2022-11-09T04:15:06.948Z,100319.22
2022-11-09T04:17:33.337Z,100303.00
2022-11-09T04:19:59.699Z,100303.44
2022-11-09T04:22:26.158Z,100317.81
2022-11-09T04:24:52.576Z,100322.19
2022-11-09T04:27:18.964Z,100306.22
2022-11-09T04:29:45.588Z,100302.69
2022-11-09T04:32:11.998Z,100299.53
2022-11-09T04:34:38.437Z,100310.75
2022-11-09T04:37:04.876Z,100297.44
2022-11-09T04:39:31.263Z,100305.59
2022-11-09T04:41:57.655Z,100308.94
2022-11-09T04:44:24.086Z,100312.66
2022-11-09T04:46:50.463Z,100309.50
2022-11-09T04:49:16.809Z,100318.47
2022-11-09T04:51:43.328Z,100320.00
2022-11-09T04:54:10.933Z,100318.75
2022-11-09T04:56:37.313Z,100313.28
2022-11-09T04:59:03.742Z,100300.38
2022-11-09T05:01:30.127Z,100307.91
2022-11-09T05:03:56.623Z,100306.22
2022-11-09T05:06:32.267Z,100315.31
2022-11-09T05:09:03.736Z,100315.63
2022-11-09T05:11:31.101Z,100328.38
2022-11-09T05:13:57.538Z,100320.50
2022-11-09T05:16:24.365Z,100320.03
2022-11-09T05:18:51.601Z,100332.84
2022-11-09T05:21:18.258Z,100335.91
2022-11-09T05:24:00.004Z,100329.97
2022-11-09T05:26:31.847Z,100333.78
2022-11-09T05:28:59.582Z,100332.41
2022-11-09T05:31:27.276Z,100334.50
2022-11-09T05:33:53.839Z,100334.97
2022-11-09T05:36:21.491Z,100330.81
2022-11-09T05:38:48.822Z,100330.72
2022-11-09T05:41:15.744Z,100327.44
2022-11-09T05:43:44.694Z,100304.19
2022-11-09T05:46:12.601Z,100314.81
2022-11-09T05:48:39.114Z,100296.81
2022-11-09T05:51:07.078Z,100308.78
2022-11-09T05:53:33.522Z,100315.00
2022-11-09T05:56:08.590Z,100312.91
2022-11-09T05:58:38.904Z,100311.22
2022-11-09T06:01:10.945Z,100302.31
2022-11-09T06:03:37.598Z,100303.34
2022-11-09T06:06:08.581Z,100310.94
2022-11-09T06:08:36.153Z,100316.16
2022-11-09T06:11:09.580Z,100327.09
2022-11-09T06:13:36.466Z,100312.75
2022-11-09T06:16:04.902Z,100314.31
2022-11-09T06:18:32.896Z,100339.25
2022-11-09T06:21:02.184Z,100339.72
2022-11-09T06:23:30.154Z,100342.88
2022-11-09T06:26:06.480Z,100332.66
2022-11-09T06:28:33.727Z,100344.81
2022-11-09T06:31:01.517Z,100340.19
2022-11-09T06:33:30.942Z,100347.69
2022-11-09T06:35:58.251Z,100343.75
2022-11-09T06:38:29.341Z,100357.44
2022-11-09T06:40:57.787Z,100356.13
2022-11-09T06:43:24.365Z,100342.31
2022-11-09T06:45:51.426Z,100369.75
2022-11-09T06:48:18.014Z,100366.97
2022-11-09T06:50:44.916Z,100372.75
2022-11-09T06:53:14.636Z,100375.16
2022-11-09T06:55:47.200Z,100366.25
2022-11-09T06:58:16.545Z,100381.38
2022-11-09T07:00:44.334Z,100390.47
2022-11-09T07:03:15.054Z,100378.56
2022-11-09T07:05:41.454Z,100371.25
2022-11-09T07:08:07.847Z,100379.97
2022-11-09T07:10:34.306Z,100388.06
2022-11-09T07:13:03.106Z,100383.31
2022-11-09T07:15:29.848Z,100392.38
2022-11-09T07:18:01.074Z,100393.44
2022-11-09T07:20:27.895Z,100392.59
2022-11-09T07:22:54.388Z,100398.31
2022-11-09T07:25:21.399Z,100387.44
2022-11-09T07:27:48.172Z,100400.53
2022-11-09T07:30:15.180Z,100386.78
2022-11-09T07:35:29.888Z,100404.69
2022-11-09T07:38:01.383Z,100398.47
2022-11-09T07:40:27.772Z,100394.66
2022-11-09T07:42:58.192Z,100403.88
2022-11-09T07:45:24.612Z,100414.28
2022-11-09T07:47:55.842Z,100420.50
2022-11-09T07:50:22.217Z,100421.78
2022-11-09T07:52:48.604Z,100402.50
2022-11-09T07:55:15.086Z,100418.72
2022-11-09T07:57:41.450Z,100414.66
2022-11-09T08:00:08.804Z,100420.03
2022-11-09T08:02:35.596Z,100423.94
2022-11-09T08:05:03.154Z,100438.22
2022-11-09T08:07:29.797Z,100428.28
2022-11-09T08:09:56.246Z,100419.84
2022-11-09T08:12:22.660Z,100422.19
2022-11-09T08:14:49.162Z,100440.06
2022-11-09T08:17:15.533Z,100425.78
2022-11-09T08:19:41.945Z,100427.47
2022-11-09T08:22:09.182Z,100429.31
2022-11-09T08:24:35.560Z,100433.84
2022-11-09T08:27:01.930Z,100425.59
2022-11-09T08:29:28.540Z,100418.47
2022-11-09T08:31:54.986Z,100417.66
2022-11-09T08:34:21.476Z,100426.06
2022-11-09T08:36:47.843Z,100418.72
2022-11-09T08:39:14.654Z,100422.44
2022-11-09T08:41:41.247Z,100414.38
2022-11-09T08:44:07.837Z,100426.06
2022-11-09T08:46:39.921Z,100432.53
2022-11-09T08:49:07.699Z,100433.47
2022-11-09T08:51:34.069Z,100429.41
2022-11-09T08:54:00.469Z,100432.34
2022-11-09T08:56:26.837Z,100436.44
2022-11-09T08:58:53.220Z,100414.06
2022-11-09T09:01:19.659Z,100433.53
2022-11-09T09:03:46.760Z,100421.22
2022-11-09T09:06:13.145Z,100435.78
2022-11-09T09:08:39.590Z,100438.06
2022-11-09T09:11:06.368Z,100431.72
2022-11-09T09:13:33.184Z,100440.84
2022-11-09T09:16:12.538Z,100444.88
2022-11-09T09:18:38.956Z,100441.06
2022-11-09T09:21:07.673Z,100434.47
2022-11-09T09:23:34.168Z,100449.88
2022-11-09T09:26:00.528Z,100429.63
2022-11-09T09:28:27.087Z,100455.50
2022-11-09T09:30:54.096Z,100451.59
2022-11-09T09:33:20.507Z,100474.31
2022-11-09T09:35:46.898Z,100458.38
2022-11-09T09:38:13.658Z,100474.97
2022-11-09T09:41:02.677Z,100462.50
2022-11-09T09:43:43.199Z,100459.69
2022-11-09T09:46:22.197Z,100472.53
2022-11-09T09:48:55.370Z,100468.38
2022-11-09T09:51:34.171Z,100470.25
2022-11-09T09:54:08.768Z,100480.84
2022-11-09T09:56:39.805Z,100469.16
2022-11-09T09:59:15.084Z,100471.66
2022-11-09T10:01:44.650Z,100475.03
2022-11-09T10:04:20.311Z,100484.81
2022-11-09T10:06:59.755Z,100495.13
2022-11-09T10:09:29.405Z,100490.50
2022-11-09T10:12:26.396Z,100477.72
2022-11-09T10:15:02.935Z,100496.13
2022-11-09T10:17:58.764Z,100482.06
2022-11-09T10:20:35.809Z,100484.25
2022-11-09T10:23:30.152Z,100468.53
2022-11-09T10:26:43.989Z,100473.59
2022-11-09T10:29:21.959Z,100474.47
2022-11-09T10:31:50.734Z,100479.69
2022-11-09T10:34:20.513Z,100474.50
2022-11-09T10:37:08.954Z,100472.06
2022-11-09T10:39:50.617Z,100464.94
2022-11-09T10:42:17.061Z,100480.19
2022-11-09T10:44:43.606Z,100484.97
2022-11-09T10:47:13.599Z,100467.88
2022-11-09T10:49:40.704Z,100474.13
2022-11-09T10:52:32.274Z,100476.00
2022-11-09T10:55:22.146Z,100485.34
2022-11-09T10:57:59.150Z,100482.19
2022-11-09T11:00:25.631Z,100470.31
2022-11-09T11:02:53.279Z,100471.94
2022-11-09T11:05:23.999Z,100474.97
2022-11-09T11:07:50.497Z,100454.75
2022-11-09T11:10:16.997Z,100465.00
2022-11-09T11:12:46.501Z,100450.19
2022-11-09T11:15:36.381Z,100461.84
2022-11-09T11:18:06.230Z,100471.03
2022-11-09T11:20:37.765Z,100470.38
2022-11-09T11:23:13.032Z,100472.25
2022-11-09T11:25:55.473Z,100452.75
2022-11-09T11:28:31.962Z,100476.09
2022-11-09T11:31:00.750Z,100465.97
2022-11-09T11:33:34.565Z,100472.44
2022-11-09T11:36:23.274Z,100471.41
2022-11-09T11:38:55.109Z,100484.75
2022-11-09T11:41:51.988Z,100487.69
2022-11-09T11:44:41.515Z,100477.03
2022-11-09T11:47:45.682Z,100487.84
2022-11-09T11:50:44.005Z,100480.09
2022-11-09T11:53:19.908Z,100492.13
2022-11-09T11:56:13.669Z,100497.53
2022-11-09T11:58:52.612Z,100483.06
2022-11-09T12:01:38.832Z,100486.78
2022-11-09T12:04:32.455Z,100491.41
2022-11-09T12:07:06.891Z,100457.72
2022-11-09T12:09:50.652Z,100483.78
2022-11-09T12:12:41.878Z,100486.47
2022-11-09T12:15:40.755Z,100490.66
2022-11-09T12:18:19.839Z,100481.06
2022-11-09T12:21:06.433Z,100484.06
2022-11-09T12:24:15.813Z,100475.94
2022-11-09T12:27:04.988Z,100473.03
2022-11-09T12:29:41.293Z,100469.72
2022-11-09T12:32:50.485Z,100460.78
2022-11-09T12:35:32.160Z,100465.59
2022-11-09T12:38:15.211Z,100469.31
2022-11-09T12:41:05.100Z,100464.75
2022-11-09T12:43:50.720Z,100467.47
2022-11-09T12:46:22.546Z,100463.31
2022-11-09T12:48:49.031Z,100471.88
2022-11-09T12:51:16.549Z,100470.41
2022-11-09T12:53:43.041Z,100489.34
2022-11-09T12:56:18.961Z,100481.03
2022-11-09T12:58:45.905Z,100473.09
2022-11-09T13:01:33.999Z,100472.69
2022-11-09T13:04:02.952Z,100463.53
2022-11-09T13:06:33.708Z,100457.75
2022-11-09T13:09:04.056Z,100461.28
2022-11-09T13:11:36.909Z,100471.47
2022-11-09T13:14:21.928Z,100475.84
2022-11-09T13:16:54.228Z,100480.00
2022-11-09T13:19:36.025Z,100482.31
2022-11-09T13:22:23.183Z,100469.81
2022-11-09T13:24:54.598Z,100482.06
2022-11-09T13:27:33.235Z,100487.47
2022-11-09T13:30:01.380Z,100489.81
2022-11-09T13:32:30.325Z,100487.94
2022-11-09T13:34:58.795Z,100491.22
2022-11-09T13:37:43.651Z,100490.81
2022-11-09T13:40:31.889Z,100495.19
2022-11-09T13:43:03.390Z,100474.75
2022-11-09T13:45:33.778Z,100503.47
2022-11-09T13:48:00.557Z,100484.28
2022-11-09T13:50:29.897Z,100489.88
2022-11-09T13:52:58.763Z,100510.06
2022-11-09T13:55:36.028Z,100490.69
2022-11-09T13:58:14.608Z,100511.13
2022-11-09T14:00:46.082Z,100503.63
2022-11-09T14:03:24.715Z,100501.97
2022-11-09T14:05:58.007Z,100489.50
2022-11-09T14:08:28.941Z,100495.28
2022-11-09T14:11:04.820Z,100506.75
2022-11-09T14:14:05.564Z,100494.91
2022-11-09T14:17:01.580Z,100499.66
2022-11-09T14:19:44.468Z,100512.50
2022-11-09T14:22:16.688Z,100506.22
2022-11-09T14:24:43.777Z,100514.44
2022-11-09T14:27:12.893Z,100513.97
2022-11-09T14:29:51.437Z,100517.44
2022-11-09T14:32:27.543Z,100528.53
2022-11-09T14:35:09.231Z,100514.59
2022-11-09T14:37:36.473Z,100518.56
2022-11-09T14:40:03.549Z,100517.97
2022-11-09T14:42:30.103Z,100527.09
2022-11-09T14:44:58.129Z,100512.84
2022-11-09T14:47:32.852Z,100518.66
2022-11-09T14:50:02.514Z,100525.88
2022-11-09T14:52:29.984Z,100514.19
2022-11-09T14:54:58.197Z,100524.13
2022-11-09T14:57:25.248Z,100542.38
2022-11-09T14:59:51.794Z,100535.91
2022-11-09T15:02:21.128Z,100545.13
2022-11-09T15:05:07.494Z,100530.22
2022-11-09T15:07:35.511Z,100520.34
2022-11-09T15:10:06.686Z,100534.59
2022-11-09T15:12:34.663Z,100529.44
2022-11-09T15:15:05.021Z,100529.53
2022-11-09T15:17:40.176Z,100532.50
2022-11-09T15:20:29.688Z,100529.22
2022-11-09T15:22:57.600Z,100515.16
2022-11-09T15:25:29.670Z,100523.97
2022-11-09T15:28:21.572Z,100509.31
2022-11-09T15:30:54.295Z,100521.38
2022-11-09T15:33:29.837Z,100522.78
2022-11-09T15:35:57.936Z,100515.06
2022-11-09T15:38:33.198Z,100530.38
2022-11-09T15:41:00.726Z,100523.41
2022-11-09T15:43:27.528Z,100519.59
2022-11-09T15:45:55.136Z,100519.13
2022-11-09T15:48:22.115Z,100537.06
2022-11-09T15:50:49.223Z,100524.50
2022-11-09T15:53:15.788Z,100513.19
2022-11-09T15:55:42.363Z,100532.09
2022-11-09T15:58:13.910Z,100520.72
2022-11-09T16:00:40.822Z,100534.44
2022-11-09T16:03:08.622Z,100522.84
2022-11-09T16:05:35.145Z,100526.72
2022-11-09T16:08:01.705Z,100524.50
2022-11-09T16:10:30.344Z,100526.19
2022-11-09T16:12:57.505Z,100544.47
2022-11-09T16:15:24.305Z,100538.25
2022-11-09T16:17:51.199Z,100537.59
2022-11-09T16:20:19.047Z,100550.69
2022-11-09T16:22:46.252Z,100540.28
2022-11-09T16:25:13.686Z,100549.09
2022-11-09T16:27:50.229Z,100541.03
2022-11-09T16:30:19.226Z,100544.56
2022-11-09T16:32:45.820Z,100543.47
2022-11-09T16:35:28.622Z,100542.31
2022-11-09T16:37:57.986Z,100561.94
2022-11-09T16:40:25.761Z,100576.31
2022-11-09T16:42:52.367Z,100557.09
2022-11-09T16:45:19.708Z,100568.69
2022-11-09T16:47:49.164Z,100566.25
2022-11-09T16:50:15.936Z,100581.59
2022-11-09T16:52:42.442Z,100570.03
2022-11-09T16:55:09.565Z,100571.97
2022-11-09T16:57:36.523Z,100585.44
2022-11-09T17:00:05.261Z,100574.91
2022-11-09T17:02:31.702Z,100576.13
2022-11-09T17:04:58.136Z,100566.09
2022-11-09T17:07:25.097Z,100594.31
2022-11-09T17:09:51.706Z,100608.41
2022-11-09T17:12:18.158Z,100590.38
2022-11-09T17:14:44.776Z,100597.69
2022-11-09T17:17:11.287Z,100598.13
2022-11-09T17:19:38.497Z,100603.44
2022-11-09T17:22:04.992Z,100602.13
2022-11-09T17:24:32.392Z,100599.47
2022-11-09T17:26:58.883Z,100592.13
2022-11-09T17:29:25.418Z,100583.94
2022-11-09T17:31:52.023Z,100607.91
2022-11-09T17:34:18.457Z,100605.22
2022-11-09T17:39:31.410Z,100613.28
2022-11-09T17:41:57.881Z,100617.28
2022-11-09T17:44:24.399Z,100613.28
2022-11-09T17:46:51.103Z,100609.53
2022-11-09T17:49:17.518Z,100613.41
2022-11-09T17:51:43.979Z,100610.59
2022-11-09T17:54:10.437Z,100620.53
2022-11-09T17:56:36.986Z,100632.19
2022-11-09T17:59:05.499Z,100644.78
2022-11-09T18:01:37.900Z,100641.78
2022-11-09T18:04:08.736Z,100643.34
2022-11-09T18:06:35.201Z,100636.72
2022-11-09T18:11:49.176Z,100652.56
2022-11-09T18:14:15.961Z,100646.19
2022-11-09T18:16:42.412Z,100671.50
2022-11-09T18:19:08.822Z,100661.28
2022-11-09T18:21:35.244Z,100656.28
2022-11-09T18:24:01.695Z,100661.13
2022-11-09T18:26:28.648Z,100659.13
2022-11-09T18:28:58.822Z,100667.19
2022-11-09T18:31:25.322Z,100675.22
2022-11-09T18:33:53.087Z,100668.00
2022-11-09T18:36:21.599Z,100656.25
2022-11-09T18:38:51.001Z,100663.97
2022-11-09T18:41:20.393Z,100677.91
2022-11-09T18:43:47.369Z,100657.09
2022-11-09T18:46:16.266Z,100688.47
2022-11-09T18:48:43.295Z,100670.19
2022-11-09T18:51:11.005Z,100678.91
2022-11-09T18:53:40.584Z,100693.16
2022-11-09T18:56:10.734Z,100693.16
2022-11-09T18:58:37.174Z,100698.00
2022-11-09T19:01:07.960Z,100701.69
2022-11-09T19:03:34.691Z,100669.47
2022-11-09T19:06:06.134Z,100709.19
2022-11-09T19:08:51.818Z,100710.53
2022-11-09T19:11:18.287Z,100709.31
2022-11-09T19:13:44.961Z,100696.38
2022-11-09T19:16:13.026Z,100722.84
2022-11-09T19:18:39.930Z,100709.25
2022-11-09T19:21:16.868Z,100728.53
2022-11-09T19:23:43.289Z,100708.53
2022-11-09T19:26:09.696Z,100725.34
2022-11-09T19:28:36.117Z,100727.47
2022-11-09T19:31:02.623Z,100717.41
2022-11-09T19:33:29.087Z,100718.25
2022-11-09T19:36:23.428Z,100705.78
2022-11-09T19:38:44.795Z,100711.31
2022-11-09T19:41:11.311Z,100725.06
2022-11-09T19:43:37.767Z,100729.44
2022-11-09T19:46:05.061Z,100746.03
2022-11-09T19:48:33.054Z,100742.19
2022-11-09T19:51:02.702Z,100742.66
2022-11-09T19:53:30.322Z,100752.75
2022-11-09T19:56:01.857Z,100746.88
2022-11-09T19:58:28.569Z,100756.75
2022-11-09T20:01:06.205Z,100774.25
2022-11-09T20:03:32.697Z,100770.19
2022-11-09T20:05:59.727Z,100762.31
2022-11-09T20:08:27.114Z,100773.41
2022-11-09T20:10:54.278Z,100769.56
2022-11-09T20:13:22.182Z,100792.34
2022-11-09T20:15:48.655Z,100789.50
2022-11-09T20:18:15.166Z,100784.31
2022-11-09T20:20:41.562Z,100798.91
2022-11-09T20:23:08.036Z,100806.09
2022-11-09T20:25:34.473Z,100801.81
2022-11-09T20:28:01.015Z,100799.28
2022-11-09T20:30:27.596Z,100797.78
2022-11-09T20:32:54.080Z,100800.66
2022-11-09T20:35:20.611Z,100806.34
2022-11-09T20:37:47.024Z,100821.94
2022-11-09T20:40:13.761Z,100816.28
2022-11-09T20:42:40.203Z,100815.06
2022-11-09T20:45:06.913Z,100814.22
2022-11-09T20:48:02.136Z,100809.34
2022-11-09T20:50:20.215Z,100817.53
2022-11-09T20:52:46.680Z,100829.16
2022-11-09T20:55:13.746Z,100829.09
2022-11-09T20:57:40.205Z,100839.19
2022-11-09T21:00:07.716Z,100839.50
2022-11-09T21:02:34.558Z,100829.28
2022-11-09T21:05:01.533Z,100855.75
2022-11-09T21:07:27.967Z,100853.56
2022-11-09T21:09:54.436Z,100855.06
2022-11-09T21:12:21.115Z,100866.00
2022-11-09T21:14:47.592Z,100861.47
2022-11-09T21:17:15.570Z,100858.63
2022-11-09T21:19:41.968Z,100863.31
2022-11-09T21:22:08.345Z,100864.16
2022-11-09T21:24:53.388Z,100882.78
2022-11-09T21:27:38.198Z,100886.47
2022-11-09T21:30:05.103Z,100889.22
2022-11-09T21:32:31.548Z,100898.63
2022-11-09T21:34:58.021Z,100905.16
2022-11-09T21:37:24.444Z,100907.84
2022-11-09T21:39:50.876Z,100907.69
2022-11-09T21:42:17.309Z,100891.56
2022-11-09T21:44:43.885Z,100916.94
2022-11-09T21:47:10.442Z,100915.78
2022-11-09T21:49:36.960Z,100928.19
2022-11-09T21:52:04.136Z,100930.91
2022-11-09T21:54:30.745Z,100928.22
2022-11-09T21:56:57.500Z,100932.44
2022-11-09T21:59:24.152Z,100933.97
2022-11-09T22:01:50.763Z,100932.97
2022-11-09T22:04:17.894Z,100931.91
2022-11-09T22:06:44.831Z,100954.59
2022-11-09T22:09:18.310Z,100940.16
2022-11-09T22:12:06.562Z,100948.69
2022-11-09T22:14:51.661Z,100951.75
2022-11-09T22:17:18.090Z,100959.09
2022-11-09T22:20:03.617Z,100957.09
2022-11-09T22:22:31.167Z,100969.69
2022-11-09T22:24:58.065Z,100960.78
2022-11-09T22:27:24.617Z,100955.38
2022-11-09T22:29:51.270Z,100964.63
2022-11-09T22:32:17.797Z,100951.38
2022-11-09T22:34:44.825Z,100962.09
2022-11-09T22:37:11.649Z,100975.19
2022-11-09T22:39:41.706Z,100956.22
2022-11-09T22:42:10.940Z,100971.84
2022-11-09T22:44:37.405Z,100971.13
2022-11-09T22:47:03.834Z,100985.56
2022-11-09T22:49:30.364Z,100980.00
2022-11-09T22:51:56.825Z,100974.91
2022-11-09T22:54:23.349Z,100980.41
2022-11-09T22:56:49.812Z,100996.19
2022-11-09T22:59:16.322Z,101004.91
2022-11-09T23:01:42.802Z,100998.78
2022-11-09T23:04:10.446Z,101003.44
2022-11-09T23:06:37.120Z,101017.84
2022-11-09T23:09:03.953Z,101003.72
2022-11-09T23:11:30.440Z,101011.44
2022-11-09T23:13:56.906Z,101023.72
2022-11-09T23:16:23.891Z,101030.91
2022-11-09T23:18:56.354Z,101039.94
2022-11-09T23:21:31.420Z,101028.00
2022-11-09T23:24:06.083Z,101044.63
2022-11-09T23:26:33.420Z,101044.63
2022-11-09T23:29:02.965Z,101035.03
2022-11-09T23:31:29.640Z,101048.84
2022-11-09T23:33:57.791Z,101047.16
2022-11-09T23:36:26.052Z,101045.59
2022-11-09T23:38:53.158Z,101058.47
2022-11-09T23:41:20.075Z,101062.84
2022-11-09T23:43:49.627Z,101066.06
2022-11-09T23:46:17.338Z,101070.72
2022-11-09T23:48:43.910Z,101067.75
2022-11-09T23:51:11.035Z,101065.16
2022-11-09T23:53:37.821Z,101073.56
2022-11-09T23:56:08.035Z,101081.91
2022-11-09T23:58:34.775Z,101088.19
